Latest Weather Observations for Port Pirie Airport AWS

IDS60801

Issued at 2:11 pm CDT Monday 18 November 2019 (issued every 10 minutes, with the page automatically refreshed every 10 minutes)

About weather observations | Map of weather stations | Latest weather observations for SA | Other Formats
Station Details ID: 021139 Name: PORT PIRIE AERODROME AWS Lat: -33.24 Lon: 138.00 Height: 12.0 m
Data from the previous 72 hours. | See also: Recent months for locations in South Australia
Date/Time
CDT
Temp
°C
App
Temp
°C
Dew
Point
°C
Rel
Hum
%
Delta-T
°C
Wind Press
QNH
hPa
Press
MSL
hPa
Rain since
9am
mm
Dir  Spd
km/h
Gust
km/h
Spd
kts
Gust
kts
18/02:00pm 32.4 26.5 -0.6 12 15.8 NNW 20 30 11 16 1015.3 1015.3 0.0
18/01:30pm 32.2 26.5 0.3 13 15.5 NNW 20 28 11 15 1015.9 1015.9 0.0
18/01:00pm 32.0 25.9 0.2 13 15.4 NNW 22 30 12 16 1016.2 1016.2 0.0
18/12:30pm 32.2 26.2 1.3 14 15.3 NNW 22 32 12 17 1016.6 1016.6 0.0
18/12:00pm 31.2 24.0 0.6 14 14.9 NNW 28 35 15 19 1016.8 1016.8 0.0
18/11:30am 29.5 21.5 0.2 15 14.0 NNW 32 41 17 22 1017.3 1017.2 0.0
18/11:00am 29.2 21.6 0.8 16 13.7 NNW 30 37 16 20 1017.4 1017.3 0.0
18/10:30am 27.6 20.7 2.6 20 12.3 NNW 28 33 15 18 1017.6 1017.5 0.0
18/10:00am 26.8 21.7 6.2 27 10.7 NNW 22 28 12 15 1017.5 1017.4 0.0
18/09:30am 25.2 20.4 5.4 28 10.1 N 20 28 11 15 1017.6 1017.5 0.0
18/09:00am 23.8 20.5 8.2 37 8.3 NNW 15 20 8 11 1017.7 1017.6 0.0
18/08:30am 21.2 19.5 11.2 53 5.5 NNW 11 15 6 8 1018.0 1017.9 0.0
18/08:00am 18.2 16.5 9.8 58 4.4 NNE 9 11 5 6 1017.9 1017.8 0.0
18/07:30am 16.1 14.0 8.3 60 3.9 NE 9 13 5 7 1017.8 1017.7 0.0
18/07:00am 12.6 9.8 5.3 61 3.4 NE 9 11 5 6 1018.0 1017.9 0.0
18/06:30am 9.8 6.8 4.2 68 2.5 ENE 9 11 5 6 1018.0 1017.9 0.0
18/06:00am 9.0 6.2 3.2 67 2.5 ENE 7 9 4 5 1017.9 1017.8 0.0
18/05:30am 9.2 6.1 3.6 68 2.4 E 9 11 5 6 1017.8 1017.7 0.0
18/05:00am 10.0 6.6 4.2 67 2.6 E 11 13 6 7 1017.7 1017.6 0.0
18/04:30am 10.2 6.8 4.1 66 2.7 ESE 11 15 6 8 1017.9 1017.8 0.0
18/04:00am 9.6 5.8 4.0 68 2.5 SSE 13 15 7 8 1017.9 1017.8 0.0
18/03:30am 9.8 6.6 3.1 63 2.9 SE 9 11 5 6 1018.1 1018.0 0.0
18/03:00am 11.4 8.7 3.9 60 3.3 SE 7 9 4 5 1018.4 1018.3 0.0
18/02:30am 12.0 9.4 4.2 59 3.5 SE 7 9 4 5 1018.7 1018.6 0.0
18/02:00am 12.2 9.2 4.2 58 3.6 ESE 9 13 5 7 1019.0 1018.9 0.0
18/01:30am 12.4 7.8 3.9 56 3.8 SE 17 19 9 10 1019.2 1019.1 0.0
18/01:00am 13.1 8.6 4.0 54 4.1 SE 17 19 9 10 1019.7 1019.6 0.0
18/12:30am 14.5 9.5 4.5 51 4.6 SE 20 22 11 12 1020.1 1020.0 0.0
18/12:00am 14.6 10.4 5.9 56 4.1 SE 17 20 9 11 1020.5 1020.4 0.0
 
Date/Time
CDT
Temp
°C
App
Temp
°C
Dew
Point
°C
Rel
Hum
%
Delta-T
°C
Wind Press
QNH
hPa
Press
MSL
hPa
Rain since
9am
mm
Dir  Spd
km/h
Gust
km/h
Spd
kts
Gust
kts
17/11:30pm 14.4 10.4 6.7 60 3.7 SE 17 20 9 11 1020.6 1020.5 0.0
17/11:00pm 13.3 10.4 8.2 71 2.5 SE 13 17 7 9 1020.8 1020.7 0.0
17/10:30pm 14.8 12.1 9.0 68 2.9 SE 13 15 7 8 1021.0 1020.9 0.0
17/10:00pm 15.8 13.4 10.1 69 3.0 SE 13 15 7 8 1021.1 1021.0 0.0
17/09:30pm 15.9 13.5 10.2 69 3.0 SE 13 15 7 8 1020.9 1020.8 0.0
17/09:00pm 16.6 14.4 10.7 68 3.1 SSE 13 15 7 8 1020.8 1020.7 0.0
17/08:30pm 17.7 14.9 11.3 66 3.5 S 17 20 9 11 1020.4 1020.3 0.0
17/08:00pm 18.5 15.1 10.6 60 4.3 SSW 19 26 10 14 1020.1 1020.0 0.0
17/07:30pm 19.8 16.2 10.0 53 5.2 SSW 19 24 10 13 1019.6 1019.5 0.0
17/07:00pm 21.2 17.5 10.1 49 6.0 SW 20 24 11 13 1019.3 1019.2 0.0
17/06:30pm 21.9 17.9 9.1 44 6.8 SW 20 28 11 15 1019.3 1019.2 0.0
17/06:00pm 22.3 17.6 9.1 43 7.0 SW 24 30 13 16 1019.5 1019.4 0.0
17/05:30pm 22.7 17.0 9.8 44 7.0 SW 30 35 16 19 1019.7 1019.6 0.0
17/05:00pm 22.9 16.7 9.3 42 7.3 SW 32 39 17 21 1019.9 1019.8 0.0
17/04:30pm 23.7 17.7 8.6 38 8.0 SW 30 39 16 21 1020.0 1019.9 0.0
17/04:00pm 23.5 17.2 7.6 36 8.3 SW 30 41 16 22 1020.2 1020.1 0.0
17/03:30pm 24.5 19.3 7.2 33 9.0 SW 24 33 13 18 1020.3 1020.2 0.0
17/03:00pm 24.3 19.0 6.6 32 9.1 SW 24 33 13 18 1020.4 1020.3 0.0
17/02:30pm 24.3 18.6 6.6 32 9.1 SW 26 35 14 19 1020.7 1020.6 0.0
17/02:00pm 24.9 19.8 -1.8 17 11.9 SSE 15 26 8 14 1021.1 1021.0 0.0
17/01:30pm 23.7 18.6 -2.0 18 11.2 SSE 15 22 8 12 1021.6 1021.5 0.0
17/01:00pm 23.5 18.3 -0.1 21 10.7 SSE 17 30 9 16 1022.2 1022.1 0.0
17/12:30pm 23.1 17.9 0.2 22 10.4 ESE 17 26 9 14 1022.6 1022.5 0.0
17/12:00pm 21.1 15.9 0.3 25 9.3 SE 17 28 9 15 1022.8 1022.7 0.0
17/11:30am 20.5 14.0 0.4 26 8.9 SSE 24 32 13 17 1023.2 1023.1 0.0
17/11:00am 19.5 13.6 1.9 31 8.0 SSE 22 32 12 17 1023.4 1023.3 0.0
17/10:30am 19.3 12.6 1.3 30 8.1 SE 26 46 14 25 1023.4 1023.3 0.0
17/10:24am 19.2 12.7 2.6 33 7.7 SE 26 46 14 25 1023.9 1023.8 0.0
17/10:00am 18.1 12.4 2.8 36 7.0 SE 22 35 12 19 1023.7 1023.6 0.0
17/09:30am 16.5 10.6 3.9 43 5.8 SE 24 35 13 19 1024.0 1023.9 0.0
17/09:00am 16.7 10.1 4.1 43 5.9 ESE 28 35 15 19 1023.8 1023.7 0.0
17/08:30am 15.8 10.0 4.2 46 5.4 SE 24 32 13 17 1023.6 1023.5 0.0
17/08:00am 14.3 9.4 4.9 53 4.4 SE 20 26 11 14 1023.2 1023.1 0.0
17/07:30am 12.4 8.0 4.9 60 3.4 SE 17 20 9 11 1023.1 1023.0 0.0
17/07:00am 10.2 6.1 4.6 68 2.5 SE 15 17 8 9 1023.0 1022.9 0.0
17/06:30am 8.2 4.0 4.0 75 1.8 SE 15 17 8 9 1023.2 1023.1 0.0
17/06:00am 8.9 4.5 4.5 74 1.9 SE 17 22 9 12 1022.8 1022.7 0.0
17/05:30am 9.5 4.7 4.5 71 2.2 ESE 19 22 10 12 1022.6 1022.5 0.0
17/05:00am 9.9 5.1 4.7 70 2.3 ESE 19 22 10 12 1022.3 1022.2 0.0
17/04:30am 10.2 5.3 5.0 70 2.3 ESE 20 26 11 14 1022.4 1022.3 0.0
17/04:00am 10.0 5.4 5.6 74 2.0 SE 19 24 10 13 1022.3 1022.2 0.0
17/03:30am 9.4 4.6 5.6 77 1.7 SE 20 24 11 13 1022.2 1022.1 0.0
17/03:00am 9.5 4.7 5.5 76 1.8 SE 20 22 11 12 1022.2 1022.1 0.0
17/02:30am 9.8 5.6 5.6 75 1.9 SSE 17 20 9 11 1022.4 1022.3 0.0
17/02:00am 11.0 6.3 6.0 71 2.3 SE 20 24 11 13 1022.5 1022.4 0.0
17/01:30am 10.6 6.6 6.6 76 1.9 SE 17 20 9 11 1022.8 1022.7 0.0
17/01:00am 9.5 5.9 5.1 74 2.0 SSE 13 17 7 9 1023.1 1023.0 0.0
17/12:30am 12.1 7.6 6.8 70 2.5 SE 20 24 11 13 1022.9 1022.8 0.0
17/12:00am 11.6 7.6 6.5 71 2.4 SSE 17 20 9 11 1022.9 1022.8 0.0
 
Date/Time
CDT
Temp
°C
App
Temp
°C
Dew
Point
°C
Rel
Hum
%
Delta-T
°C
Wind Press
QNH
hPa
Press
MSL
hPa
Rain since
9am
mm
Dir  Spd
km/h
Gust
km/h
Spd
kts
Gust
kts
16/11:30pm 10.0 6.0 4.8 70 2.3 S 15 17 8 9 1023.0 1022.9 0.0
16/11:00pm 11.3 7.0 5.2 66 2.8 SSE 17 17 9 9 1022.7 1022.6 0.0
16/10:30pm 11.5 7.7 4.0 60 3.3 SSE 13 15 7 8 1022.7 1022.6 0.0
16/10:00pm 12.0 7.9 4.2 59 3.5 SSE 15 17 8 9 1022.5 1022.4 0.0
16/09:30pm 13.8 10.1 4.4 53 4.3 SSE 13 17 7 9 1021.6 1021.5 0.0
16/09:00pm 15.6 10.7 4.9 49 5.0 S 20 26 11 14 1021.5 1021.4 0.0
16/08:30pm 16.5 11.6 5.2 47 5.4 S 20 26 11 14 1021.0 1020.9 0.0
16/08:00pm 16.7 11.4 9.9 64 3.6 SSW 28 35 15 19 1020.8 1020.7 0.0
16/07:30pm 17.2 11.1 9.9 62 3.8 SSW 32 39 17 21 1020.1 1020.0 0.0
16/07:00pm 17.4 9.9 9.6 60 4.1 SSW 39 50 21 27 1020.1 1020.0 0.0
16/06:30pm 17.5 9.2 9.4 59 4.2 SW 43 52 23 28 1020.0 1019.9 0.0
16/06:00pm 18.6 10.2 9.1 54 5.0 SSW 43 52 23 28 1019.8 1019.7 0.0
16/05:30pm 19.4 10.8 9.0 51 5.4 SW 44 54 24 29 1019.7 1019.6 0.0
16/05:00pm 20.2 11.7 8.5 47 6.1 SSW 43 52 23 28 1019.7 1019.6 0.0
16/04:30pm 20.1 11.2 9.1 49 5.8 SW 46 59 25 32 1019.4 1019.3 0.0
16/04:00pm 20.5 11.9 8.8 47 6.2 SW 44 56 24 30 1019.3 1019.2 0.0
16/03:30pm 20.5 12.1 9.1 48 6.0 SW 43 52 23 28 1019.5 1019.4 0.0
16/03:00pm 21.1 12.9 8.4 44 6.6 SW 41 52 22 28 1019.6 1019.5 0.0
16/02:30pm 22.0 14.1 7.8 40 7.4 SW 39 48 21 26 1019.8 1019.7 0.0
16/02:00pm 21.4 13.7 6.9 39 7.4 SW 37 50 20 27 1020.0 1019.9 0.0
16/01:30pm 21.9 15.0 6.6 37 7.8 SW 32 41 17 22 1020.0 1019.9 0.0
16/01:00pm 21.8 16.0 6.1 36 7.9 WSW 26 37 14 20 1020.0 1019.9 0.0
16/12:30pm 22.1 18.9 5.1 33 8.4 SW 11 26 6 14 1020.0 1019.9 0.0
16/12:00pm 20.8 17.7 5.6 37 7.5 SSW 11 20 6 11 1020.5 1020.4 0.0
16/11:30am 20.6 17.2 5.8 38 7.3 SE 13 22 7 12 1020.7 1020.6 0.0
16/11:00am 20.3 16.8 7.0 42 6.8 S 15 24 8 13 1021.1 1021.0 0.0
16/10:30am 18.2 14.1 6.4 46 5.8 SSE 17 26 9 14 1021.3 1021.2 0.0
16/10:00am 17.9 13.4 7.0 49 5.4 SSE 20 28 11 15 1021.3 1021.2 0.0
16/09:30am 16.9 12.3 6.4 50 5.1 SE 20 30 11 16 1021.2 1021.1 0.0
16/09:00am 16.8 12.4 7.2 53 4.8 SE 20 26 11 14 1021.1 1021.0 0.0
16/08:30am 15.1 10.6 6.9 58 4.0 SE 20 26 11 14 1021.1 1021.0 0.0
16/08:00am 13.5 9.0 7.1 65 3.1 SE 20 26 11 14 1020.9 1020.8 0.0
16/07:30am 11.6 8.1 7.3 75 2.1 SE 15 17 8 9 1020.9 1020.8 0.0
16/07:00am 9.6 5.7 6.9 83 1.3 SSE 17 19 9 10 1020.6 1020.5 0.0
16/06:30am 8.3 4.7 6.6 89 0.8 SE 15 19 8 10 1020.3 1020.2 0.0
16/06:00am 7.4 3.2 5.5 88 0.8 SSE 17 17 9 9 1020.0 1019.9 0.0
16/05:30am 7.8 4.0 5.8 87 0.9 SSE 15 17 8 9 1019.5 1019.4 0.0
16/05:00am 8.4 4.7 6.4 87 0.9 SSE 15 17 8 9 1019.4 1019.3 0.0
16/04:30am 8.5 4.8 6.3 86 1.0 SSE 15 17 8 9 1019.5 1019.4 0.0
16/04:00am 8.6 4.9 6.1 84 1.1 SSE 15 15 8 8 1019.4 1019.3 0.0
16/03:30am 9.1 5.8 6.2 82 1.3 SSE 13 15 7 8 1019.5 1019.4 0.0
16/03:00am 9.5 5.9 6.6 82 1.3 SSE 15 15 8 8 1019.6 1019.5 0.0
16/02:30am 9.4 6.4 6.1 80 1.5 SSE 11 13 6 7 1019.6 1019.5 0.0
16/02:00am 10.5 7.7 6.8 78 1.7 SE 11 11 6 6 1020.0 1019.9 0.0
16/01:30am 11.3 7.9 7.6 78 1.8 SSE 15 17 8 9 1020.3 1020.2 0.0
16/01:00am 12.3 9.1 8.4 77 1.9 SSE 15 19 8 10 1020.5 1020.4 0.0
16/12:30am 12.9 9.3 8.4 74 2.2 SSE 17 20 9 11 1020.6 1020.5 0.0
16/12:00am 13.9 9.9 8.9 72 2.5 S 20 26 11 14 1020.6 1020.5 0.0
 
Date/Time
CDT
Temp
°C
App
Temp
°C
Dew
Point
°C
Rel
Hum
%
Delta-T
°C
Wind Press
QNH
hPa
Press
MSL
hPa
Rain since
9am
mm
Dir  Spd
km/h
Gust
km/h
Spd
kts
Gust
kts
15/11:30pm 14.5 9.7 8.7 68 2.9 S 24 32 13 17 1020.6 1020.5 0.0
15/11:00pm 15.0 10.4 8.0 63 3.5 S 22 30 12 16 1020.5 1020.4 0.0
15/10:30pm 15.4 11.1 7.9 61 3.7 S 20 26 11 14 1020.3 1020.2 0.0
15/10:00pm 16.0 11.4 8.0 59 4.0 S 22 30 12 16 1020.0 1019.9 0.0
15/09:30pm 16.4 12.2 8.1 58 4.2 SSW 20 28 11 15 1019.7 1019.6 0.0
15/09:00pm 16.8 13.1 8.0 56 4.4 SSW 17 20 9 11 1019.2 1019.1 0.0
15/08:30pm 17.2 13.5 7.8 54 4.7 SSW 17 24 9 13 1018.9 1018.8 0.0
15/08:00pm 17.8 12.5 9.7 59 4.3 SSW 28 35 15 19 1018.6 1018.5 0.0
15/07:30pm 18.5 13.1 9.6 56 4.7 SSW 28 35 15 19 1018.2 1018.1 0.0
15/07:00pm 19.5 13.7 9.4 52 5.3 SSW 30 37 16 20 1018.0 1017.9 0.0
15/06:30pm 20.7 15.3 9.6 49 5.9 SSW 28 37 15 20 1017.6 1017.5 0.0
15/06:00pm 21.5 15.4 8.4 43 6.9 SSW 30 39 16 21 1017.3 1017.2 0.0
15/05:30pm 21.3 15.0 7.5 41 7.1 SSW 30 41 16 22 1017.2 1017.1 0.0
15/05:00pm 21.9 15.1 7.0 38 7.6 SSW 32 41 17 22 1017.1 1017.0 0.0
15/04:30pm 21.7 14.6 5.6 35 8.0 SSW 32 43 17 23 1017.0 1016.9 0.0
15/04:00pm 22.1 16.3 6.3 36 8.0 SSW 26 33 14 18 1017.1 1017.0 0.0
15/03:30pm 21.8 15.5 7.2 39 7.5 SSW 30 39 16 21 1017.2 1017.1 0.0
15/03:00pm 21.8 16.0 8.0 41 7.2 SSW 28 41 15 22 1017.4 1017.3 0.0
15/02:30pm 21.5 16.3 8.7 44 6.8 SSW 26 35 14 19 1017.6 1017.5 0.0

Other formats

Comma delimited format used in spreadsheet applications
http://www.bom.gov.au/fwo/IDS60801/IDS60801.99749.axf

JavaScript Object Notation format (JSON) in row-major order
http://www.bom.gov.au/fwo/IDS60801/IDS60801.99749.json

Data quality

Most of these data are generated automatically and are frequently updated. Quality checks on data are not normally performed. It is possible for incorrect values to appear. Refer to information at About Latest Weather Observations and please check the disclaimer before using these data.